createdAt,value
2023-10-06T00:02:30.956Z,100579.03
2023-10-06T00:05:12.666Z,100584.47
2023-10-06T00:07:42.044Z,100571.06
2023-10-06T00:10:21.266Z,100575.63
2023-10-06T00:12:51.431Z,100581.47
2023-10-06T00:15:27.898Z,100580.84
2023-10-06T00:18:08.424Z,100519.06
2023-10-06T00:20:46.547Z,100589.03
2023-10-06T00:23:16.095Z,100570.38
2023-10-06T00:25:43.883Z,100576.25
2023-10-06T00:28:27.209Z,100589.22
2023-10-06T00:30:59.112Z,100578.13
2023-10-06T00:33:35.630Z,100565.38
2023-10-06T00:36:12.736Z,100588.22
2023-10-06T00:38:44.170Z,100573.16
2023-10-06T00:41:16.162Z,100561.00
2023-10-06T00:43:45.869Z,100590.28
2023-10-06T00:46:15.888Z,100584.22
2023-10-06T00:48:46.126Z,100590.31
2023-10-06T00:51:21.132Z,100582.19
2023-10-06T00:53:53.025Z,100578.66
2023-10-06T00:56:24.865Z,100591.22
2023-10-06T00:58:54.800Z,100591.84
2023-10-06T01:01:24.169Z,100563.56
2023-10-06T01:04:03.168Z,100587.44
2023-10-06T01:06:35.305Z,100593.94
2023-10-06T01:09:14.690Z,100587.03
2023-10-06T01:11:52.156Z,100562.53
2023-10-06T01:14:30.465Z,100573.22
2023-10-06T01:17:16.387Z,100581.38
2023-10-06T01:19:54.559Z,100575.94
2023-10-06T01:22:26.381Z,100578.66
2023-10-06T01:24:54.734Z,100586.19
2023-10-06T01:27:29.876Z,100597.31
2023-10-06T01:30:16.578Z,100569.84
2023-10-06T01:32:47.476Z,100592.88
2023-10-06T01:35:22.134Z,100577.41
2023-10-06T01:37:49.793Z,100568.16
2023-10-06T01:40:26.491Z,100587.41
2023-10-06T01:42:54.699Z,100589.91
2023-10-06T01:45:23.180Z,100591.19
2023-10-06T01:48:12.560Z,100586.56
2023-10-06T01:50:41.158Z,100586.97
2023-10-06T01:53:17.797Z,100590.34
2023-10-06T01:55:52.174Z,100582.38
2023-10-06T01:58:19.792Z,100579.44
2023-10-06T02:00:50.925Z,100543.91
2023-10-06T02:03:22.999Z,100554.75
2023-10-06T02:06:01.202Z,100563.13
2023-10-06T02:08:28.736Z,100570.03
2023-10-06T02:10:57.108Z,100563.75
2023-10-06T02:13:24.804Z,100561.00
2023-10-06T02:16:02.500Z,100566.44
2023-10-06T02:18:38.002Z,100571.66
2023-10-06T02:21:13.281Z,100574.59
2023-10-06T02:23:48.355Z,100557.63
2023-10-06T02:26:22.964Z,100586.94
2023-10-06T02:28:51.924Z,100583.38
2023-10-06T02:31:23.489Z,100586.28
2023-10-06T02:33:53.498Z,100551.50
2023-10-06T02:36:24.622Z,100590.03
2023-10-06T02:38:53.376Z,100593.34
2023-10-06T02:41:30.977Z,100577.03
2023-10-06T02:44:28.884Z,100538.88
2023-10-06T02:46:57.346Z,100580.78
2023-10-06T02:49:41.037Z,100583.09
2023-10-06T02:52:21.270Z,100584.59
2023-10-06T02:55:06.039Z,100578.34
2023-10-06T02:57:37.496Z,100572.84
2023-10-06T03:00:39.148Z,100583.53
2023-10-06T03:03:14.008Z,100568.66
2023-10-06T03:05:43.062Z,100583.94
2023-10-06T03:08:12.868Z,100579.13
2023-10-06T03:10:44.899Z,100593.13
2023-10-06T03:13:25.161Z,100569.03
2023-10-06T03:15:52.916Z,100568.34
2023-10-06T03:18:22.222Z,100569.41
2023-10-06T03:20:51.312Z,100581.16
2023-10-06T03:23:29.685Z,100576.56
2023-10-06T03:25:58.004Z,100583.53
2023-10-06T03:28:38.099Z,100585.97
2023-10-06T03:31:22.110Z,100586.13
2023-10-06T03:33:56.954Z,100580.50
2023-10-06T03:36:39.050Z,100566.88
2023-10-06T03:39:09.331Z,100585.53
2023-10-06T03:41:38.911Z,100574.00
2023-10-06T03:44:06.889Z,100568.78
2023-10-06T03:46:40.416Z,100567.34
2023-10-06T03:49:09.589Z,100565.03
2023-10-06T03:51:40.077Z,100558.34
2023-10-06T03:54:11.694Z,100567.13
2023-10-06T03:56:39.179Z,100569.03
2023-10-06T03:59:14.440Z,100564.63
2023-10-06T04:01:45.803Z,100546.84
2023-10-06T04:04:19.240Z,100580.56
2023-10-06T04:06:49.273Z,100567.16
2023-10-06T04:09:30.228Z,100556.91
2023-10-06T04:12:02.965Z,100560.25
2023-10-06T04:14:33.267Z,100576.13
2023-10-06T04:17:02.923Z,100578.06
2023-10-06T04:19:32.191Z,100568.41
2023-10-06T04:21:59.548Z,100532.00
2023-10-06T04:24:30.882Z,100532.22
2023-10-06T04:27:06.726Z,100564.88
2023-10-06T04:29:38.392Z,100568.63
2023-10-06T04:32:07.396Z,100572.78
2023-10-06T04:34:38.254Z,100557.88
2023-10-06T04:37:09.209Z,100564.78
2023-10-06T04:39:40.029Z,100584.13
2023-10-06T04:42:07.703Z,100591.84
2023-10-06T04:44:35.993Z,100570.63
2023-10-06T04:47:03.404Z,100569.59
2023-10-06T04:49:32.437Z,100604.31
2023-10-06T04:52:01.563Z,100588.25
2023-10-06T04:54:29.262Z,100605.59
2023-10-06T04:56:58.066Z,100592.53
2023-10-06T04:59:25.766Z,100624.78
2023-10-06T05:01:54.640Z,100631.41
2023-10-06T05:04:24.462Z,100634.25
2023-10-06T05:06:54.509Z,100654.38
2023-10-06T05:09:22.679Z,100633.03
2023-10-06T05:11:51.367Z,100663.59
2023-10-06T05:14:19.058Z,100652.88
2023-10-06T05:16:46.474Z,100651.34
2023-10-06T05:19:14.699Z,100651.72
2023-10-06T05:21:42.206Z,100676.47
2023-10-06T05:24:17.773Z,100684.03
2023-10-06T05:26:45.911Z,100688.19
2023-10-06T05:29:15.830Z,100686.16
2023-10-06T05:31:46.564Z,100697.09
2023-10-06T05:34:25.277Z,100696.94
2023-10-06T05:36:57.861Z,100704.72
2023-10-06T05:39:26.603Z,100700.91
2023-10-06T05:41:55.520Z,100706.31
2023-10-06T05:44:25.723Z,100706.41
2023-10-06T05:46:55.463Z,100698.97
2023-10-06T05:49:23.367Z,100705.28
2023-10-06T05:51:52.951Z,100698.56
2023-10-06T05:54:25.201Z,100707.81
2023-10-06T05:56:55.631Z,100695.78
2023-10-06T05:59:58.293Z,100736.19
2023-10-06T06:02:30.366Z,100686.63
2023-10-06T06:05:38.468Z,100735.47
2023-10-06T06:08:10.331Z,100745.22
2023-10-06T06:11:03.583Z,100743.38
2023-10-06T06:13:32.383Z,100738.19
2023-10-06T06:16:02.735Z,100741.09
2023-10-06T06:18:35.962Z,100747.50
2023-10-06T06:21:04.610Z,100750.75
2023-10-06T06:23:37.274Z,100739.50
2023-10-06T06:26:05.570Z,100741.66
2023-10-06T06:28:34.474Z,100752.16
2023-10-06T06:31:06.519Z,100743.16
2023-10-06T06:33:34.416Z,100753.47
2023-10-06T06:36:02.362Z,100754.88
2023-10-06T06:38:40.942Z,100730.34
2023-10-06T06:41:11.151Z,100754.63
2023-10-06T06:43:44.950Z,100764.88
2023-10-06T06:46:14.651Z,100753.31
2023-10-06T06:48:48.261Z,100761.22
2023-10-06T06:51:18.500Z,100775.38
2023-10-06T06:53:48.273Z,100765.94
2023-10-06T06:56:18.563Z,100778.53
2023-10-06T06:58:48.577Z,100785.94
2023-10-06T07:01:18.753Z,100783.22
2023-10-06T07:03:49.181Z,100781.41
2023-10-06T07:06:19.038Z,100774.91
2023-10-06T07:08:48.273Z,100780.75
2023-10-06T07:11:21.140Z,100777.34
2023-10-06T07:13:54.606Z,100782.53
2023-10-06T07:16:28.343Z,100785.16
2023-10-06T07:18:59.599Z,100794.03
2023-10-06T07:21:30.794Z,100794.75
2023-10-06T07:23:58.956Z,100794.03
2023-10-06T07:26:32.431Z,100798.59
2023-10-06T07:29:04.339Z,100790.59
2023-10-06T07:31:35.841Z,100791.03
2023-10-06T07:34:09.662Z,100785.22
2023-10-06T07:36:43.974Z,100781.50
2023-10-06T07:39:24.692Z,100782.75
2023-10-06T07:41:57.091Z,100794.22
2023-10-06T07:45:05.721Z,100781.22
2023-10-06T07:51:59.802Z,100785.31
2023-10-06T07:54:34.273Z,100792.47
2023-10-06T07:57:44.732Z,100716.03
2023-10-06T08:00:25.690Z,100793.31
2023-10-06T08:03:03.069Z,100810.63
2023-10-06T08:06:01.825Z,100787.91
2023-10-06T08:08:31.928Z,100810.56
2023-10-06T08:11:07.534Z,100790.19
2023-10-06T08:13:38.459Z,100799.09
2023-10-06T08:16:10.668Z,100802.28
2023-10-06T08:18:41.261Z,100798.66
2023-10-06T08:21:13.329Z,100805.09
2023-10-06T08:23:44.827Z,100805.59
2023-10-06T08:26:20.752Z,100806.22
2023-10-06T08:28:48.577Z,100808.09
2023-10-06T08:31:19.822Z,100806.31
2023-10-06T08:33:49.918Z,100808.19
2023-10-06T08:36:22.271Z,100809.47
2023-10-06T08:38:53.840Z,100815.63
2023-10-06T08:41:30.647Z,100808.63
2023-10-06T08:44:04.532Z,100813.66
2023-10-06T08:46:36.582Z,100810.53
2023-10-06T08:49:09.008Z,100816.13
2023-10-06T08:51:41.974Z,100812.50
2023-10-06T08:54:14.959Z,100810.84
2023-10-06T08:56:44.796Z,100806.97
2023-10-06T08:59:19.005Z,100803.94
2023-10-06T09:01:46.836Z,100820.47
2023-10-06T09:04:16.252Z,100809.38
2023-10-06T09:07:09.513Z,100814.03
2023-10-06T09:09:37.768Z,100818.88
2023-10-06T09:12:10.845Z,100820.63
2023-10-06T09:14:58.199Z,100817.44
2023-10-06T09:17:37.609Z,100828.28
2023-10-06T09:20:28.319Z,100822.25
2023-10-06T09:23:04.067Z,100817.94
2023-10-06T09:25:49.598Z,100817.09
2023-10-06T09:28:18.743Z,100798.41
2023-10-06T09:31:00.462Z,100797.56
2023-10-06T09:33:43.284Z,100818.69
2023-10-06T09:36:32.036Z,100815.63
2023-10-06T09:39:07.812Z,100815.81
2023-10-06T09:41:37.839Z,100815.03
2023-10-06T09:44:09.737Z,100807.22
2023-10-06T09:46:43.024Z,100798.44
2023-10-06T09:49:18.649Z,100807.53
2023-10-06T09:51:48.419Z,100801.19
2023-10-06T09:54:16.657Z,100805.88
2023-10-06T09:56:48.296Z,100809.78
2023-10-06T09:59:29.329Z,100805.09
2023-10-06T10:01:59.303Z,100794.13
2023-10-06T10:04:34.056Z,100804.31
2023-10-06T10:07:07.022Z,100792.59
2023-10-06T10:09:39.098Z,100790.00
2023-10-06T10:12:31.622Z,100780.88
2023-10-06T10:15:39.088Z,100795.44
2023-10-06T10:18:40.657Z,100797.78
2023-10-06T10:21:13.348Z,100788.66
2023-10-06T10:23:45.951Z,100790.22
2023-10-06T10:26:22.100Z,100790.16
2023-10-06T10:29:22.527Z,100783.75
2023-10-06T10:32:10.112Z,100791.72
2023-10-06T10:35:15.224Z,100784.91
2023-10-06T10:38:05.855Z,100748.53
2023-10-06T10:40:49.067Z,100779.31
2023-10-06T10:43:19.768Z,100785.38
2023-10-06T10:45:49.312Z,100772.03
2023-10-06T10:48:17.245Z,100768.28
2023-10-06T10:50:57.606Z,100774.84
2023-10-06T10:53:30.607Z,100771.50
2023-10-06T10:56:05.059Z,100763.19
2023-10-06T10:58:45.586Z,100761.50
2023-10-06T11:01:31.619Z,100762.13
2023-10-06T11:04:32.694Z,100757.16
2023-10-06T11:07:13.323Z,100754.44
2023-10-06T11:09:42.235Z,100752.19
2023-10-06T11:12:24.786Z,100751.66
2023-10-06T11:15:16.912Z,100743.09
2023-10-06T11:17:47.225Z,100719.28
2023-10-06T11:23:13.036Z,100731.72
2023-10-06T11:25:51.693Z,100725.66
2023-10-06T11:28:21.340Z,100723.47
2023-10-06T11:30:51.931Z,100725.09
2023-10-06T11:33:24.266Z,100711.75
2023-10-06T11:35:55.587Z,100720.03
2023-10-06T11:38:25.509Z,100721.66
2023-10-06T11:40:53.322Z,100713.75
2023-10-06T11:43:23.013Z,100715.09
2023-10-06T11:46:03.996Z,100716.09
2023-10-06T11:48:37.345Z,100698.53
2023-10-06T11:51:11.574Z,100698.56
2023-10-06T11:53:41.957Z,100693.28
2023-10-06T11:56:12.535Z,100698.66
2023-10-06T11:58:42.318Z,100690.16
2023-10-06T12:01:38.437Z,100692.84
2023-10-06T12:04:24.195Z,100695.97
2023-10-06T12:06:53.160Z,100683.66
2023-10-06T12:09:27.428Z,100683.63
2023-10-06T12:11:57.267Z,100684.84
2023-10-06T12:14:27.969Z,100684.50
2023-10-06T12:16:56.351Z,100687.88
2023-10-06T12:19:27.309Z,100682.91
2023-10-06T12:21:57.309Z,100672.75
2023-10-06T12:24:33.355Z,100679.28
2023-10-06T12:27:03.901Z,100687.91
2023-10-06T12:29:33.346Z,100674.38
2023-10-06T12:32:03.746Z,100674.97
2023-10-06T12:34:34.704Z,100675.97
2023-10-06T12:37:03.621Z,100663.09
2023-10-06T12:39:37.290Z,100653.66
2023-10-06T12:42:06.627Z,100663.69
2023-10-06T12:44:41.273Z,100662.53
2023-10-06T12:47:12.500Z,100658.72
2023-10-06T12:49:48.065Z,100659.28
2023-10-06T12:52:17.290Z,100655.69
2023-10-06T12:54:45.787Z,100655.91
2023-10-06T12:57:13.914Z,100660.28
2023-10-06T12:59:43.212Z,100647.63
2023-10-06T13:02:10.740Z,100641.84
2023-10-06T13:04:44.471Z,100640.84
2023-10-06T13:07:38.504Z,100653.19
2023-10-06T13:10:11.036Z,100645.44
2023-10-06T13:12:42.984Z,100645.41
2023-10-06T13:15:14.355Z,100642.13
2023-10-06T13:17:43.543Z,100630.97
2023-10-06T13:20:17.714Z,100630.47
2023-10-06T13:22:48.921Z,100623.84
2023-10-06T13:25:22.805Z,100621.66
2023-10-06T13:27:52.516Z,100622.75
2023-10-06T13:30:21.776Z,100624.38
2023-10-06T13:32:53.333Z,100629.38
2023-10-06T13:35:21.946Z,100613.66
2023-10-06T13:37:56.044Z,100617.47
2023-10-06T13:40:24.013Z,100617.78
2023-10-06T13:42:53.691Z,100619.69
2023-10-06T13:45:25.667Z,100617.25
2023-10-06T13:50:53.931Z,100609.78
2023-10-06T13:53:23.182Z,100599.78
2023-10-06T13:55:52.371Z,100603.97
2023-10-06T13:58:20.722Z,100610.78
2023-10-06T14:00:49.041Z,100611.66
2023-10-06T14:03:18.712Z,100614.94
2023-10-06T14:05:57.337Z,100614.91
2023-10-06T14:08:30.619Z,100615.28
2023-10-06T14:11:02.962Z,100607.25
2023-10-06T14:13:36.174Z,100616.63
2023-10-06T14:16:19.926Z,100612.78
2023-10-06T14:18:48.980Z,100600.63
2023-10-06T14:21:37.643Z,100608.13
2023-10-06T14:24:12.081Z,100609.50
2023-10-06T14:26:42.134Z,100615.59
2023-10-06T14:29:11.327Z,100603.34
2023-10-06T14:31:49.290Z,100601.19
2023-10-06T14:34:37.891Z,100600.09
2023-10-06T14:37:26.651Z,100603.13
2023-10-06T14:40:13.877Z,100606.69
2023-10-06T14:43:07.821Z,100599.47
2023-10-06T14:45:54.512Z,100597.28
2023-10-06T14:48:28.634Z,100601.44
2023-10-06T14:51:00.990Z,100605.03
2023-10-06T14:53:31.837Z,100601.91
2023-10-06T14:56:02.233Z,100598.06
2023-10-06T14:58:31.767Z,100595.53
2023-10-06T15:01:08.549Z,100595.81
2023-10-06T15:03:40.285Z,100596.59
2023-10-06T15:06:11.475Z,100593.78
2023-10-06T15:08:40.044Z,100598.84
2023-10-06T15:11:15.189Z,100601.53
2023-10-06T15:13:43.064Z,100588.16
2023-10-06T15:16:15.258Z,100610.63
2023-10-06T15:18:47.461Z,100592.03
2023-10-06T15:21:18.394Z,100594.38
2023-10-06T15:23:54.673Z,100608.06
2023-10-06T15:26:27.457Z,100603.72
2023-10-06T15:28:56.810Z,100610.22
2023-10-06T15:31:29.952Z,100611.38
2023-10-06T15:33:59.072Z,100622.78
2023-10-06T15:36:28.476Z,100622.94
2023-10-06T15:39:04.179Z,100620.84
2023-10-06T15:41:32.715Z,100597.53
2023-10-06T15:44:04.887Z,100614.75
2023-10-06T15:46:33.676Z,100616.34
2023-10-06T15:49:01.539Z,100615.13
2023-10-06T15:51:30.637Z,100616.91
2023-10-06T15:56:26.562Z,100622.59
2023-10-06T15:59:01.841Z,100639.69
2023-10-06T16:01:29.918Z,100616.03
2023-10-06T16:03:59.534Z,100628.56
2023-10-06T16:06:27.473Z,100631.19
2023-10-06T16:08:56.777Z,100636.22
2023-10-06T16:11:29.627Z,100627.03
2023-10-06T16:13:58.353Z,100631.34
2023-10-06T16:16:27.172Z,100630.66
2023-10-06T16:18:54.938Z,100611.16
2023-10-06T16:21:22.395Z,100637.50
2023-10-06T16:23:53.570Z,100641.88
2023-10-06T16:26:21.148Z,100634.72
2023-10-06T16:28:50.264Z,100635.22
2023-10-06T16:31:49.865Z,100636.88
2023-10-06T16:34:22.874Z,100634.88
2023-10-06T16:36:50.543Z,100635.81
2023-10-06T16:39:23.204Z,100641.38
2023-10-06T16:41:51.608Z,100641.66
2023-10-06T16:44:24.528Z,100648.34
2023-10-06T16:46:52.330Z,100629.34
2023-10-06T16:49:20.200Z,100638.78
2023-10-06T16:52:05.402Z,100636.91
2023-10-06T16:54:45.245Z,100636.91
2023-10-06T16:57:13.199Z,100628.84
2023-10-06T16:59:59.528Z,100632.34
2023-10-06T17:02:27.856Z,100637.25
2023-10-06T17:05:05.836Z,100636.25
2023-10-06T17:07:40.227Z,100638.28
2023-10-06T17:10:13.758Z,100641.94
2023-10-06T17:12:41.618Z,100644.38
2023-10-06T17:15:11.824Z,100646.88
2023-10-06T17:17:45.536Z,100642.94
2023-10-06T17:20:22.720Z,100647.31
2023-10-06T17:22:50.407Z,100637.34
2023-10-06T17:25:18.263Z,100634.81
2023-10-06T17:27:48.240Z,100645.97
2023-10-06T17:30:19.989Z,100631.31
2023-10-06T17:33:20.775Z,100646.94
2023-10-06T17:35:55.432Z,100642.75
2023-10-06T17:38:31.073Z,100648.66
2023-10-06T17:41:24.564Z,100659.34
2023-10-06T17:43:58.492Z,100648.47
2023-10-06T17:46:29.984Z,100655.25
2023-10-06T17:49:08.308Z,100661.84
2023-10-06T17:55:20.014Z,100584.13
2023-10-06T17:57:53.371Z,100557.38
2023-10-06T18:00:24.641Z,100660.38
2023-10-06T18:05:59.559Z,100643.63
2023-10-06T18:45:59.543Z,100624.19
2023-10-06T18:48:47.358Z,100660.00
2023-10-06T18:51:42.480Z,100657.47
2023-10-06T18:54:33.080Z,100660.41
2023-10-06T20:27:00.257Z,100612.97
2023-10-06T20:35:19.808Z,100693.78
2023-10-06T20:37:50.347Z,100692.91
2023-10-06T20:40:39.991Z,100686.44
2023-10-06T20:43:40.156Z,100670.69
2023-10-06T20:46:51.955Z,100690.38
2023-10-06T20:49:45.411Z,100660.03
2023-10-06T20:52:22.359Z,100672.16
2023-10-06T20:58:40.974Z,100664.47
2023-10-06T21:01:31.386Z,100668.16
2023-10-06T21:04:09.475Z,100675.75
2023-10-06T21:06:52.896Z,100674.47
2023-10-06T21:09:34.672Z,100659.72
2023-10-06T21:12:39.476Z,100675.28
2023-10-06T21:15:15.920Z,100672.94
2023-10-06T21:18:09.974Z,100674.72
2023-10-06T21:20:47.716Z,100659.25
2023-10-06T21:23:35.820Z,100669.06
2023-10-06T21:26:15.339Z,100679.03
2023-10-06T21:28:55.621Z,100670.63
2023-10-06T21:31:31.904Z,100674.00
2023-10-06T21:34:09.496Z,100670.75
2023-10-06T21:37:03.433Z,100668.31
2023-10-06T21:40:06.937Z,100676.03
2023-10-06T21:42:36.789Z,100671.41
2023-10-06T21:45:10.874Z,100658.63
2023-10-06T21:47:39.530Z,100670.75
2023-10-06T21:50:11.439Z,100668.06
2023-10-06T21:52:41.992Z,100665.09
2023-10-06T21:55:12.544Z,100679.75
2023-10-06T21:57:42.091Z,100676.44
2023-10-06T22:00:27.089Z,100655.09
2023-10-06T22:03:03.418Z,100665.78
2023-10-06T22:08:35.252Z,100682.84
2023-10-06T22:11:13.214Z,100672.59
2023-10-06T22:14:10.540Z,100673.97
2023-10-06T22:16:43.320Z,100641.25
2023-10-06T22:19:12.544Z,100677.41
2023-10-06T22:21:44.192Z,100673.69
2023-10-06T22:24:16.760Z,100678.66
2023-10-06T22:26:49.867Z,100656.88
2023-10-06T22:29:17.975Z,100665.66
2023-10-06T22:31:55.972Z,100657.31
2023-10-06T22:34:25.054Z,100658.06
2023-10-06T22:37:45.558Z,100664.31
2023-10-06T22:40:20.101Z,100667.31
2023-10-06T22:43:19.360Z,100671.94
2023-10-06T22:46:02.111Z,100590.06
2023-10-06T22:56:08.927Z,100640.03
2023-10-06T22:58:39.979Z,100641.03
2023-10-06T23:04:17.325Z,100660.31
2023-10-06T23:06:48.824Z,100644.50
2023-10-06T23:09:43.817Z,100658.94
2023-10-06T23:12:22.605Z,100645.78
2023-10-06T23:14:58.351Z,100647.94
2023-10-06T23:17:33.943Z,100649.94
2023-10-06T23:20:28.036Z,100648.59
2023-10-06T23:23:02.809Z,100657.00
2023-10-06T23:25:59.686Z,100631.91
2023-10-06T23:28:34.270Z,100644.81
2023-10-06T23:31:05.324Z,100660.03
2023-10-06T23:33:50.368Z,100651.38
2023-10-06T23:36:51.955Z,100661.50
2023-10-06T23:39:30.978Z,100647.47
2023-10-06T23:41:58.739Z,100652.69
2023-10-06T23:44:35.203Z,100649.84
2023-10-06T23:47:12.897Z,100643.38
2023-10-06T23:49:43.318Z,100578.47
2023-10-06T23:52:45.215Z,100643.50
2023-10-06T23:55:17.556Z,100649.16
2023-10-06T23:57:52.829Z,100639.75
